Historyczne dane pomiarowe

Dodano dane terminowe – wersja testowa.

Dane z okresu 1951-2019

Wersja bazy: 1.34 [2019-03-16, lista zmian], aktualizacja planowana na 2019-04-15

Dane meteo z obszaru Polski uzyskane na podstawie danych udostępnionych przez Instytut Meteorologii i Gospodarki Wodnej – Państwowy Instytut Badawczy.

 

Wybierz Datę:    

       

TemperaturaWilgotnośćWiatrCiśnienieOpadyŚniegCzas trwania zjawisk
 Stacja t tx tn tng RH VA  wxwx mslp ppp RRR   cm mm wxwxwxwxwxwxwx
1994-08-14 12.2 15.5 9.6 9.5 82.8- 6.7 8.0---- 19.7------------
1994-08-13 15.4 20.0 9.3 7.6 86.3- 8.0 3.0---- 6.7------------
1994-08-12 16.7 23.6 9.1 6.6 80.5- 5.3 1.0---- 0.0------------
1994-08-11 19.9 26.5 13.2 11.0 66.3- 3.0 3.7---- 0.0------------
1994-08-10 18.8 26.0 8.6 7.6 72.0- 2.0 2.3---- 0.0------------
1994-08-09 18.7 25.0 9.8 7.1 74.3- 2.3 2.3---- 0.0------------
1994-08-08 18.6 24.6 13.1 9.0 73.3- 4.0 1.0---- 0.0------------
1994-08-07 19.1 24.5 13.7 10.5 75.3- 3.3 2.0---- 0.0------------
1994-08-06 22.8 27.6 16.3 12.6 74.0- 2.0 2.7---- 0.0------------
1994-08-05 23.1 31.8 10.6 9.0 71.8- 2.3 1.3---- 0.0------------
1994-08-04 19.5 26.5 12.7 12.0 71.8- 2.7 1.3---- 0.0------------
1994-08-03 20.7 24.0 19.5 18.5 87.0- 5.7 1.0---- 0.0------------
1994-08-02 23.4 33.0 20.5 18.5 82.0- 3.0 2.0---- 0.0------------
1994-08-01 25.4 32.5 21.0 18.8 70.5- 5.0 2.0---- 0.0------------
1994-07-31 28.9 36.5 22.5 20.0 58.0- 5.0 0.3---- 2.1------------
1994-07-30 24.6 33.5 15.3 13.5 77.0- 4.7 0.0---- 1.5------------
1994-07-29 26.7 35.5 16.8 14.0 59.5- 3.0 1.3---- 0.0------------
1994-07-28 24.0 31.5 15.8 13.4 70.3- 1.0 0.0---- 0.0------------
1994-07-27 26.5 35.0 20.5 17.5 57.8- 1.0 1.3---- 0.0------------
1994-07-26 25.3 33.5 13.7 10.5 56.8- 2.0 0.3---- 0.0------------
1994-07-25 26.4 31.5 12.2 8.4 58.5- 1.7 1.7---- 0.0------------
1994-07-24 22.6 31.0 9.6 7.5 56.0- 2.0 0.3---- 0.0------------
1994-07-23 22.5 29.0 11.1 8.5 54.8- 2.3 0.7---- 0.0------------
1994-07-22 20.4 27.5 8.8 5.6 59.8- 1.7 1.7---- 0.0------------
1994-07-21 18.9 26.2 7.2 4.6 63.8- 2.7 1.0---- 0.0------------
1994-07-20 17.0 23.5 6.2 3.7 70.3- 1.0 1.3---- 0.0------------
1994-07-19 16.2 22.5 5.7 3.7 70.0- 2.0 0.3---- 0.0------------
1994-07-18 16.2 22.2 8.2 5.1 73.0- 3.7 2.7---- 0.0------------
1994-07-17 18.1 22.0 11.6 8.5 69.0- 3.0 2.0---- 0.0------------
1994-07-16 19.8 24.0 16.3 15.5 78.5- 5.3 3.0---- 0.0------------
1994-07-15 24.5 32.5 19.4 15.5 71.5- 6.3 0.3---- 0.0------------
1994-07-14 24.9 32.0 15.8 12.6 66.5- 5.0 1.7---- 0.0------------
1994-07-13 24.6 32.5 14.2 11.5 56.5- 3.7 1.0---- 0.0------------
1994-07-12 21.4 30.0 9.1 6.6 64.3- 2.3 2.0---- 0.0------------
1994-07-11 18.1 26.0 10.6 10.6 72.5- 0.0 0.3---- 0.0------------
1994-07-10 17.7 24.5 8.6 6.6 77.3- 1.7 0.7---- 0.0------------
1994-07-09 17.8 23.5 13.2 11.0 78.8- 3.3 2.0---- 0.0------------
1994-07-08 17.0 24.5 7.2 4.1 73.8- 3.7 1.7---- 0.0------------
1994-07-07 15.2 22.5 4.6 1.2 65.5- 3.0 0.7---- 0.0------------
1994-07-06 14.9 19.6 7.5 4.6 71.8- 4.0 2.3---- 0.0------------
1994-07-05 14.7 20.0 6.7 3.2 78.0- 5.7 1.7---- 0.0------------
1994-07-04 18.1 24.6 8.8 5.6 63.5- 0.7 1.0---- 0.0------------
1994-07-03 19.4 24.5 10.2 5.2 54.5- 3.3 1.7---- 0.0------------
1994-07-02 16.2 23.2 5.3 3.2 67.8- 1.0 2.0---- 0.0------------
1994-07-01 13.8 17.4 9.4 6.1 80.3- 3.0 3.3---- 0.0------------
1994-06-30 16.5 28.0 14.2 13.8 77.8- 5.0 6.3---- 0.0------------
1994-06-29 22.4 30.1 11.0 7.6 69.8- 3.3 0.7---- 6.7------------
1994-06-28 17.9 23.5 10.8 7.6 77.0- 3.0 1.0---- 0.0------------
1994-06-27 16.9 21.2 12.7 10.8 75.3- 5.0 3.0---- 0.0------------
1994-06-26 20.7 29.2 12.7 8.5 63.5- 1.3 3.0---- 0.0------------
1994-06-25 16.2 23.2 4.8 1.7 63.5- 0.3 0.3---- 0.0------------
1994-06-24 12.6 15.5 9.1 9.1 79.8- 4.3 7.0---- 0.0------------
1994-06-23 12.4 15.5 9.6 8.5 74.3- 6.7 12.0---- 0.0------------
1994-06-22 15.7 19.0 14.2 13.0 86.0- 7.3 9.0---- 1.2------------
1994-06-21 14.0 21.0 5.2 0.4 75.8- 4.7 2.0---- 2.8------------
1994-06-20 12.0 14.5 9.2 7.1 79.8- 3.7 9.7---- 0.0------------
1994-06-19 12.4 14.5 10.4 9.0 93.5- 8.0 7.3---- 3.8------------
1994-06-18 11.0 16.4 4.8 0.4 84.0- 6.3 2.7---- 5.2------------
1994-06-17 9.1 12.8 4.6 2.0 82.0- 5.0 7.0---- 0.0------------
1994-06-16 10.0 13.0 8.1 6.6 83.0- 6.3 8.0---- 0.3------------
365.1 ms

 

Źródłem pochodzenia danych jest Instytut Meteorologii i Gospodarki Wodnej – Państwowy Instytut Badawczy. Dane Instytutu Meteorologii i Gospodarki Wodnej – Państwowego Instytutu Badawczego zostały przetworzone.

Dane źródłowe można odnaleźć na stronie https://dane.imgw.pl